FSF120A LGSK-LGMK
Flight info
| Callsign | FSF120A |
|---|---|
| Flight time | 0h 33m |
| Altitude | 17000 |
| Route | EVIKO W58 SKP N137 AGAPU |
| Aircraft | PC12/L-SDFGRWY/S |
Departure
| Time | 2026-04-21 09:27 |
|---|---|
| Airport | Skiathos Island National Airport (LGSK) |
Arrival
| Time | 2026-04-21 10:01 |
|---|---|
| Airport | Mykonos Island National Airport (LGMK) |
| Time | Latitude | Longitude | Altitude | Speed | Heading |
|---|---|---|---|---|---|
| 2026-04-21 09:07 | 39.17648 | 23.50197 | 35 ft | 0 kts | 109° |
| 2026-04-21 09:23 | 39.17647 | 23.50198 | 35 ft | 0 kts | 109° |
| 2026-04-21 09:24 | 39.17656 | 23.50231 | 35 ft | 9 kts | 37° |
| 2026-04-21 09:24 | 39.17735 | 23.50259 | 35 ft | 14 kts | 14° |
| 2026-04-21 09:24 | 39.17842 | 23.50305 | 36 ft | 18 kts | 20° |
| 2026-04-21 09:24 | 39.17904 | 23.50331 | 36 ft | 9 kts | 33° |
| 2026-04-21 09:25 | 39.17920 | 23.50367 | 38 ft | 7 kts | 71° |
| 2026-04-21 09:25 | 39.17958 | 23.50475 | 41 ft | 19 kts | 39° |
| 2026-04-21 09:25 | 39.18110 | 23.50544 | 46 ft | 27 kts | 18° |
| 2026-04-21 09:25 | 39.18271 | 23.50615 | 54 ft | 21 kts | 23° |
| 2026-04-21 09:26 | 39.18414 | 23.50679 | 56 ft | 21 kts | 20° |
| 2026-04-21 09:26 | 39.18505 | 23.50689 | 56 ft | 10 kts | 4° |
| 2026-04-21 09:26 | 39.18498 | 23.50720 | 53 ft | 0 kts | 197° |
| 2026-04-21 09:26 | 39.18492 | 23.50718 | 55 ft | 6 kts | 198° |
| 2026-04-21 09:27 | 39.18300 | 23.50630 | 54 ft | 57 kts | 199° |
| 2026-04-21 09:27 | 39.17766 | 23.50397 | 57 ft | 99 kts | 197° |
| 2026-04-21 09:27 | 39.17107 | 23.50045 | 330 ft | 108 kts | 202° |
| 2026-04-21 09:27 | 39.16377 | 23.49662 | 661 ft | 126 kts | 191° |
| 2026-04-21 09:28 | 39.15500 | 23.49441 | 1193 ft | 129 kts | 191° |
| 2026-04-21 09:28 | 39.14551 | 23.49030 | 1494 ft | 151 kts | 204° |
| 2026-04-21 09:28 | 39.13609 | 23.48699 | 2274 ft | 135 kts | 174° |
| 2026-04-21 09:28 | 39.12804 | 23.49331 | 2771 ft | 148 kts | 133° |
| 2026-04-21 09:29 | 39.12097 | 23.50320 | 3445 ft | 150 kts | 137° |
| 2026-04-21 09:29 | 39.11350 | 23.51272 | 4055 ft | 152 kts | 137° |
| 2026-04-21 09:29 | 39.10577 | 23.52220 | 4619 ft | 154 kts | 139° |
| 2026-04-21 09:29 | 39.09785 | 23.53168 | 5178 ft | 157 kts | 139° |
| 2026-04-21 09:30 | 39.08977 | 23.54130 | 5730 ft | 159 kts | 139° |
| 2026-04-21 09:30 | 39.08159 | 23.55105 | 6287 ft | 161 kts | 140° |
| 2026-04-21 09:30 | 39.07329 | 23.56093 | 6820 ft | 164 kts | 140° |
| 2026-04-21 09:30 | 39.06488 | 23.57096 | 7354 ft | 166 kts | 140° |
| 2026-04-21 09:31 | 39.05636 | 23.58110 | 7897 ft | 168 kts | 140° |
| 2026-04-21 09:31 | 39.04773 | 23.59137 | 8448 ft | 170 kts | 140° |
| 2026-04-21 09:31 | 39.03900 | 23.60176 | 9012 ft | 172 kts | 140° |
| 2026-04-21 09:31 | 39.03014 | 23.61230 | 9562 ft | 175 kts | 140° |
| 2026-04-21 09:32 | 39.02117 | 23.62298 | 10104 ft | 176 kts | 140° |
| 2026-04-21 09:32 | 39.01210 | 23.63375 | 10625 ft | 178 kts | 141° |
| 2026-04-21 09:32 | 39.00290 | 23.64422 | 11148 ft | 180 kts | 142° |
| 2026-04-21 09:32 | 38.99343 | 23.65489 | 11721 ft | 182 kts | 142° |
| 2026-04-21 09:33 | 38.98390 | 23.66570 | 12304 ft | 184 kts | 142° |
| 2026-04-21 09:33 | 38.97427 | 23.67664 | 12884 ft | 186 kts | 142° |
| 2026-04-21 09:33 | 38.96454 | 23.68768 | 13469 ft | 188 kts | 142° |
| 2026-04-21 09:33 | 38.95467 | 23.69889 | 14017 ft | 190 kts | 142° |
| 2026-04-21 09:34 | 38.94470 | 23.71020 | 14534 ft | 192 kts | 142° |
| 2026-04-21 09:34 | 38.93459 | 23.72166 | 15055 ft | 194 kts | 142° |
| 2026-04-21 09:34 | 38.92431 | 23.73330 | 15497 ft | 203 kts | 142° |
| 2026-04-21 09:34 | 38.91322 | 23.74580 | 15777 ft | 220 kts | 142° |
| 2026-04-21 09:35 | 38.90145 | 23.75908 | 16067 ft | 235 kts | 142° |
| 2026-04-21 09:35 | 38.88872 | 23.77351 | 16363 ft | 247 kts | 142° |
| 2026-04-21 09:35 | 38.87558 | 23.78840 | 16654 ft | 257 kts | 142° |
| 2026-04-21 09:35 | 38.86215 | 23.80360 | 16925 ft | 264 kts | 142° |
| 2026-04-21 09:36 | 38.84801 | 23.81956 | 16977 ft | 278 kts | 142° |
| 2026-04-21 09:36 | 38.83318 | 23.83630 | 16976 ft | 288 kts | 142° |
| 2026-04-21 09:36 | 38.81797 | 23.85350 | 16970 ft | 294 kts | 142° |
| 2026-04-21 09:36 | 38.80253 | 23.87094 | 16971 ft | 298 kts | 142° |
| 2026-04-21 09:37 | 38.78695 | 23.88851 | 16975 ft | 299 kts | 141° |
| 2026-04-21 09:37 | 38.77128 | 23.90617 | 16976 ft | 300 kts | 141° |
| 2026-04-21 09:37 | 38.75556 | 23.92388 | 16975 ft | 301 kts | 142° |
| 2026-04-21 09:37 | 38.73983 | 23.94159 | 16974 ft | 301 kts | 141° |
| 2026-04-21 09:38 | 38.72405 | 23.95935 | 17001 ft | 301 kts | 141° |
| 2026-04-21 09:38 | 38.70829 | 23.97706 | 16970 ft | 302 kts | 142° |
| 2026-04-21 09:38 | 38.69251 | 23.99479 | 16972 ft | 302 kts | 141° |
| 2026-04-21 09:38 | 38.67674 | 24.01251 | 16978 ft | 302 kts | 141° |
| 2026-04-21 09:39 | 38.66134 | 24.02979 | 16965 ft | 302 kts | 141° |
| 2026-04-21 09:39 | 38.64558 | 24.04748 | 16975 ft | 302 kts | 142° |
| 2026-04-21 09:39 | 38.62997 | 24.06496 | 16972 ft | 302 kts | 142° |
| 2026-04-21 09:39 | 38.61415 | 24.08268 | 16971 ft | 302 kts | 141° |
| 2026-04-21 09:40 | 38.59835 | 24.10040 | 16975 ft | 302 kts | 142° |
| 2026-04-21 09:40 | 38.58251 | 24.11811 | 16973 ft | 302 kts | 141° |
| 2026-04-21 09:40 | 38.56667 | 24.13580 | 16973 ft | 303 kts | 141° |
| 2026-04-21 09:40 | 38.55081 | 24.15353 | 16975 ft | 303 kts | 141° |
| 2026-04-21 09:41 | 38.53497 | 24.17124 | 16979 ft | 303 kts | 142° |
| 2026-04-21 09:41 | 38.51911 | 24.18893 | 16965 ft | 303 kts | 141° |
| 2026-04-21 09:41 | 38.50324 | 24.20663 | 16968 ft | 302 kts | 141° |
| 2026-04-21 09:41 | 38.48744 | 24.22425 | 16974 ft | 302 kts | 141° |
| 2026-04-21 09:42 | 38.47160 | 24.24191 | 16970 ft | 302 kts | 141° |
| 2026-04-21 09:42 | 38.45581 | 24.25949 | 16970 ft | 302 kts | 141° |
| 2026-04-21 09:42 | 38.43997 | 24.27711 | 16966 ft | 301 kts | 141° |
| 2026-04-21 09:42 | 38.42436 | 24.29446 | 16970 ft | 301 kts | 141° |
| 2026-04-21 09:43 | 38.40858 | 24.31201 | 16973 ft | 301 kts | 141° |
| 2026-04-21 09:43 | 38.39274 | 24.32961 | 16970 ft | 301 kts | 141° |
| 2026-04-21 09:43 | 38.37694 | 24.34714 | 16971 ft | 301 kts | 141° |
| 2026-04-21 09:43 | 38.36115 | 24.36467 | 16964 ft | 301 kts | 141° |
| 2026-04-21 09:44 | 38.35069 | 24.37626 | 16967 ft | 301 kts | 141° |
| 2026-04-21 09:44 | 38.33491 | 24.39375 | 16971 ft | 301 kts | 141° |
| 2026-04-21 09:44 | 38.31912 | 24.41124 | 16961 ft | 300 kts | 141° |
| 2026-04-21 09:44 | 38.30336 | 24.42869 | 16973 ft | 300 kts | 141° |
| 2026-04-21 09:45 | 38.28759 | 24.44614 | 16972 ft | 300 kts | 141° |
| 2026-04-21 09:45 | 38.27183 | 24.46356 | 16973 ft | 300 kts | 141° |
| 2026-04-21 09:45 | 38.25603 | 24.48102 | 16971 ft | 300 kts | 141° |
| 2026-04-21 09:45 | 38.24030 | 24.49839 | 16970 ft | 300 kts | 141° |
| 2026-04-21 09:46 | 38.22454 | 24.51579 | 16969 ft | 300 kts | 141° |
| 2026-04-21 09:46 | 38.20881 | 24.53314 | 16963 ft | 300 kts | 141° |
| 2026-04-21 09:46 | 38.19304 | 24.55052 | 16976 ft | 299 kts | 141° |
| 2026-04-21 09:46 | 38.17730 | 24.56787 | 16974 ft | 299 kts | 141° |
| 2026-04-21 09:47 | 38.16156 | 24.58520 | 16981 ft | 299 kts | 141° |
| 2026-04-21 09:47 | 38.14579 | 24.60255 | 16978 ft | 299 kts | 141° |
| 2026-04-21 09:47 | 38.13007 | 24.61984 | 16970 ft | 299 kts | 141° |
| 2026-04-21 09:47 | 38.11437 | 24.63711 | 16969 ft | 299 kts | 141° |
| 2026-04-21 09:48 | 38.09882 | 24.65419 | 16977 ft | 299 kts | 141° |
| 2026-04-21 09:48 | 38.08310 | 24.67144 | 16979 ft | 299 kts | 141° |
| 2026-04-21 09:48 | 38.06740 | 24.68866 | 16976 ft | 298 kts | 141° |
| 2026-04-21 09:48 | 38.05168 | 24.70590 | 16978 ft | 298 kts | 141° |
| 2026-04-21 09:49 | 38.03596 | 24.72313 | 16978 ft | 298 kts | 141° |
| 2026-04-21 09:49 | 38.02026 | 24.74033 | 16973 ft | 298 kts | 141° |
| 2026-04-21 09:49 | 38.00455 | 24.75752 | 16983 ft | 298 kts | 141° |
| 2026-04-21 09:49 | 37.98881 | 24.77474 | 16952 ft | 299 kts | 141° |
| 2026-04-21 09:50 | 37.97320 | 24.79181 | 16486 ft | 298 kts | 141° |
| 2026-04-21 09:50 | 37.96259 | 24.80338 | 16153 ft | 306 kts | 141° |
| 2026-04-21 09:50 | 37.92461 | 24.84487 | 15092 ft | 305 kts | 141° |
| 2026-04-21 09:51 | 37.90898 | 24.86193 | 14807 ft | 288 kts | 141° |
| 2026-04-21 09:51 | 37.89372 | 24.87857 | 14551 ft | 294 kts | 141° |
| 2026-04-21 09:51 | 37.87812 | 24.89554 | 14316 ft | 295 kts | 141° |
| 2026-04-21 09:51 | 37.86261 | 24.91243 | 14071 ft | 293 kts | 141° |
| 2026-04-21 09:52 | 37.84734 | 24.92904 | 13838 ft | 287 kts | 141° |
| 2026-04-21 09:52 | 37.83217 | 24.94556 | 13581 ft | 288 kts | 141° |
| 2026-04-21 09:52 | 37.81702 | 24.96203 | 13314 ft | 285 kts | 141° |
| 2026-04-21 09:52 | 37.80214 | 24.97818 | 13041 ft | 281 kts | 141° |
| 2026-04-21 09:53 | 37.78717 | 24.99443 | 12781 ft | 285 kts | 141° |
| 2026-04-21 09:53 | 37.77220 | 25.01069 | 12478 ft | 283 kts | 141° |
| 2026-04-21 09:53 | 37.75730 | 25.02685 | 12145 ft | 281 kts | 141° |
| 2026-04-21 09:53 | 37.74249 | 25.04290 | 11818 ft | 279 kts | 141° |
| 2026-04-21 09:54 | 37.72779 | 25.05882 | 11491 ft | 277 kts | 140° |
| 2026-04-21 09:54 | 37.71318 | 25.07464 | 11169 ft | 273 kts | 140° |
| 2026-04-21 09:54 | 37.69968 | 25.08927 | 10832 ft | 241 kts | 141° |
| 2026-04-21 09:54 | 37.68747 | 25.10248 | 10496 ft | 229 kts | 141° |
| 2026-04-21 09:55 | 37.67560 | 25.11530 | 10156 ft | 221 kts | 140° |
| 2026-04-21 09:55 | 37.66395 | 25.12789 | 9819 ft | 215 kts | 140° |
| 2026-04-21 09:55 | 37.65289 | 25.13984 | 9467 ft | 209 kts | 141° |
| 2026-04-21 09:55 | 37.64197 | 25.15163 | 9116 ft | 204 kts | 140° |
| 2026-04-21 09:56 | 37.63113 | 25.16334 | 8775 ft | 203 kts | 141° |
| 2026-04-21 09:56 | 37.62059 | 25.17469 | 8440 ft | 200 kts | 141° |
| 2026-04-21 09:56 | 37.61005 | 25.18606 | 8110 ft | 198 kts | 141° |
| 2026-04-21 09:56 | 37.59967 | 25.19724 | 7781 ft | 195 kts | 141° |
| 2026-04-21 09:57 | 37.58941 | 25.20831 | 7451 ft | 192 kts | 141° |
| 2026-04-21 09:57 | 37.57928 | 25.21924 | 7141 ft | 190 kts | 141° |
| 2026-04-21 09:57 | 37.56933 | 25.22994 | 6821 ft | 183 kts | 142° |
| 2026-04-21 09:57 | 37.55966 | 25.24035 | 6488 ft | 184 kts | 141° |
| 2026-04-21 09:58 | 37.54992 | 25.25085 | 6157 ft | 176 kts | 142° |
| 2026-04-21 09:58 | 37.53997 | 25.26154 | 5770 ft | 193 kts | 141° |
| 2026-04-21 09:58 | 37.52998 | 25.27229 | 5368 ft | 187 kts | 141° |
| 2026-04-21 09:58 | 37.52013 | 25.28286 | 4902 ft | 184 kts | 141° |
| 2026-04-21 09:59 | 37.51044 | 25.29325 | 4346 ft | 179 kts | 143° |
| 2026-04-21 09:59 | 37.49987 | 25.30254 | 3747 ft | 187 kts | 148° |
| 2026-04-21 09:59 | 37.48975 | 25.31119 | 2979 ft | 167 kts | 147° |
| 2026-04-21 09:59 | 37.48010 | 25.31947 | 2340 ft | 169 kts | 147° |
| 2026-04-21 10:00 | 37.47058 | 25.32773 | 2098 ft | 147 kts | 148° |
| 2026-04-21 10:00 | 37.46283 | 25.33489 | 1478 ft | 142 kts | 147° |
| 2026-04-21 10:00 | 37.45373 | 25.33995 | 776 ft | 137 kts | 161° |
| 2026-04-21 10:00 | 37.44599 | 25.34340 | 532 ft | 101 kts | 162° |
| 2026-04-21 10:01 | 37.44012 | 25.34598 | 406 ft | 76 kts | 160° |
| 2026-04-21 10:01 | 37.43706 | 25.34730 | 407 ft | 10 kts | 185° |
| 2026-04-21 10:01 | 37.43596 | 25.34678 | 404 ft | 22 kts | 172° |
| 2026-04-21 10:01 | 37.43509 | 25.34710 | 404 ft | 8 kts | 164° |
| 2026-04-21 10:02 | 37.43452 | 25.34734 | 404 ft | 10 kts | 160° |
| 2026-04-21 10:02 | 37.43401 | 25.34746 | 404 ft | 1 kts | 227° |
| 2026-04-21 10:02 | 37.43396 | 25.34721 | 404 ft | 7 kts | 252° |
| 2026-04-21 10:03 | 37.43388 | 25.34694 | 403 ft | 0 kts | 250° |